sensor_id;sensor_type;location;lat;lon;timestamp;pressure;altitude;pressure_sealevel;temperature;humidity
69171;BME280;56279;47.902;12.308;2023-03-14T00:00:10;94004.69;;;10.40;65.82
69171;BME280;56279;47.902;12.308;2023-03-14T00:02:13;94008.25;;;10.36;66.44
69171;BME280;56279;47.902;12.308;2023-03-14T00:04:15;94003.88;;;10.31;66.77
69171;BME280;56279;47.902;12.308;2023-03-14T00:06:17;94017.34;;;10.30;67.00
69171;BME280;56279;47.902;12.308;2023-03-14T00:08:19;94029.28;;;10.27;67.34
69171;BME280;56279;47.902;12.308;2023-03-14T00:10:22;94039.38;;;10.25;67.77
69171;BME280;56279;47.902;12.308;2023-03-14T00:12:23;94046.81;;;10.23;68.22
69171;BME280;56279;47.902;12.308;2023-03-14T00:14:24;94058.44;;;10.22;68.28
69171;BME280;56279;47.902;12.308;2023-03-14T00:16:26;94042.94;;;10.21;68.68
69171;BME280;56279;47.902;12.308;2023-03-14T00:18:27;94033.44;;;10.20;68.82
69171;BME280;56279;47.902;12.308;2023-03-14T00:20:29;94030.81;;;10.20;69.53
69171;BME280;56279;47.902;12.308;2023-03-14T00:22:31;94023.22;;;10.18;69.51
69171;BME280;56279;47.902;12.308;2023-03-14T00:24:33;94026.00;;;10.13;69.62
69171;BME280;56279;47.902;12.308;2023-03-14T00:26:35;94015.88;;;10.07;70.24
69171;BME280;56279;47.902;12.308;2023-03-14T00:32:18;93993.63;;;9.82;70.87
69171;BME280;56279;47.902;12.308;2023-03-14T00:34:22;93980.09;;;9.75;71.31
69171;BME280;56279;47.902;12.308;2023-03-14T00:36:23;93967.34;;;9.68;71.43
69171;BME280;56279;47.902;12.308;2023-03-14T00:38:26;93960.06;;;9.65;71.94
69171;BME280;56279;47.902;12.308;2023-03-14T00:40:27;93949.06;;;9.63;71.86
69171;BME280;56279;47.902;12.308;2023-03-14T00:42:29;93918.53;;;9.62;72.16
69171;BME280;56279;47.902;12.308;2023-03-14T00:44:32;93906.94;;;9.63;72.36
69171;BME280;56279;47.902;12.308;2023-03-14T00:46:34;93894.34;;;9.60;72.42
69171;BME280;56279;47.902;12.308;2023-03-14T00:48:35;93889.09;;;9.60;72.51
69171;BME280;56279;47.902;12.308;2023-03-14T00:50:37;93881.78;;;9.57;72.62
69171;BME280;56279;47.902;12.308;2023-03-14T00:52:38;93888.16;;;9.56;72.55
69171;BME280;56279;47.902;12.308;2023-03-14T00:54:41;93898.97;;;9.55;72.59
69171;BME280;56279;47.902;12.308;2023-03-14T00:56:44;93896.66;;;9.53;72.85
69171;BME280;56279;47.902;12.308;2023-03-14T00:58:45;93909.50;;;9.55;72.75
69171;BME280;56279;47.902;12.308;2023-03-14T01:00:54;93929.81;;;9.54;72.98
69171;BME280;56279;47.902;12.308;2023-03-14T01:02:55;93938.47;;;9.55;73.04
69171;BME280;56279;47.902;12.308;2023-03-14T01:04:58;93947.94;;;9.56;73.26
69171;BME280;56279;47.902;12.308;2023-03-14T01:07:00;93938.19;;;9.56;73.33
69171;BME280;56279;47.902;12.308;2023-03-14T01:09:02;93942.69;;;9.56;73.41
69171;BME280;56279;47.902;12.308;2023-03-14T01:11:08;93956.16;;;9.54;73.08
69171;BME280;56279;47.902;12.308;2023-03-14T01:13:10;93956.91;;;9.55;73.39
69171;BME280;56279;47.902;12.308;2023-03-14T01:15:11;93950.09;;;9.54;73.38
69171;BME280;56279;47.902;12.308;2023-03-14T01:17:13;93953.81;;;9.53;73.56
69171;BME280;56279;47.902;12.308;2023-03-14T01:19:14;93956.44;;;9.53;73.79
69171;BME280;56279;47.902;12.308;2023-03-14T01:21:20;93942.81;;;9.51;73.89
69171;BME280;56279;47.902;12.308;2023-03-14T01:23:22;93941.25;;;9.50;74.28
69171;BME280;56279;47.902;12.308;2023-03-14T01:25:23;93944.19;;;9.48;74.35
69171;BME280;56279;47.902;12.308;2023-03-14T01:27:25;93933.19;;;9.46;74.20
69171;BME280;56279;47.902;12.308;2023-03-14T01:29:26;93926.34;;;9.45;74.45
69171;BME280;56279;47.902;12.308;2023-03-14T01:31:28;93923.44;;;9.47;74.82
69171;BME280;56279;47.902;12.308;2023-03-14T01:33:29;93922.34;;;9.48;74.65
69171;BME280;56279;47.902;12.308;2023-03-14T01:35:31;93940.94;;;9.51;74.47
69171;BME280;56279;47.902;12.308;2023-03-14T01:37:32;93953.81;;;9.53;74.36
69171;BME280;56279;47.902;12.308;2023-03-14T01:39:38;93966.38;;;9.56;74.32
69171;BME280;56279;47.902;12.308;2023-03-14T01:41:42;93962.38;;;9.58;74.36
69171;BME280;56279;47.902;12.308;2023-03-14T01:43:44;93965.78;;;9.59;73.93
69171;BME280;56279;47.902;12.308;2023-03-14T01:48:06;93963.44;;;9.57;74.15
69171;BME280;56279;47.902;12.308;2023-03-14T01:50:09;93952.91;;;9.57;74.01
69171;BME280;56279;47.902;12.308;2023-03-14T01:52:29;93948.09;;;9.59;73.86
69171;BME280;56279;47.902;12.308;2023-03-14T01:54:55;93927.81;;;9.60;73.94
69171;BME280;56279;47.902;12.308;2023-03-14T02:00:57;93943.47;;;9.56;73.94
69171;BME280;56279;47.902;12.308;2023-03-14T02:03:04;93939.25;;;9.55;74.03
69171;BME280;56279;47.902;12.308;2023-03-14T02:05:10;93922.38;;;9.56;73.79
69171;BME280;56279;47.902;12.308;2023-03-14T02:07:22;93909.69;;;9.58;73.69
69171;BME280;56279;47.902;12.308;2023-03-14T02:09:44;93914.19;;;9.66;73.88
69171;BME280;56279;47.902;12.308;2023-03-14T02:11:53;93903.53;;;9.71;73.36
69171;BME280;56279;47.902;12.308;2023-03-14T02:14:33;93912.06;;;9.77;73.61
69171;BME280;56279;47.902;12.308;2023-03-14T02:17:00;93921.69;;;9.82;73.28
69171;BME280;56279;47.902;12.308;2023-03-14T02:19:03;93919.53;;;9.84;73.78
69171;BME280;56279;47.902;12.308;2023-03-14T02:21:54;93920.00;;;9.86;73.84
69171;BME280;56279;47.902;12.308;2023-03-14T02:26:39;93926.97;;;9.90;74.48
69171;BME280;56279;47.902;12.308;2023-03-14T02:28:39;93927.44;;;9.92;74.88
69171;BME280;56279;47.902;12.308;2023-03-14T02:30:41;93941.88;;;9.95;75.36
69171;BME280;56279;47.902;12.308;2023-03-14T02:32:46;93942.97;;;9.94;75.57
69171;BME280;56279;47.902;12.308;2023-03-14T02:34:57;93961.41;;;9.94;75.83
69171;BME280;56279;47.902;12.308;2023-03-14T02:37:00;93967.16;;;9.96;76.22
69171;BME280;56279;47.902;12.308;2023-03-14T02:39:10;93973.03;;;9.93;76.74
69171;BME280;56279;47.902;12.308;2023-03-14T02:41:16;93973.63;;;9.90;77.19
69171;BME280;56279;47.902;12.308;2023-03-14T02:43:24;93976.91;;;9.87;77.65
69171;BME280;56279;47.902;12.308;2023-03-14T02:45:38;93982.59;;;9.80;78.10
69171;BME280;56279;47.902;12.308;2023-03-14T02:47:50;93978.84;;;9.72;78.39
69171;BME280;56279;47.902;12.308;2023-03-14T02:50:01;93971.69;;;9.64;79.24
69171;BME280;56279;47.902;12.308;2023-03-14T02:52:05;93972.59;;;9.60;79.82
69171;BME280;56279;47.902;12.308;2023-03-14T02:54:07;93977.22;;;9.54;80.20
69171;BME280;56279;47.902;12.308;2023-03-14T02:56:09;93978.09;;;9.50;80.61
69171;BME280;56279;47.902;12.308;2023-03-14T02:58:21;93982.75;;;9.44;80.64
69171;BME280;56279;47.902;12.308;2023-03-14T03:00:28;93973.13;;;9.40;81.70
69171;BME280;56279;47.902;12.308;2023-03-14T03:02:31;93972.47;;;9.34;82.64
69171;BME280;56279;47.902;12.308;2023-03-14T03:04:33;93975.22;;;9.29;82.93
69171;BME280;56279;47.902;12.308;2023-03-14T03:06:34;93974.25;;;9.25;83.48
69171;BME280;56279;47.902;12.308;2023-03-14T03:08:35;93971.16;;;9.23;84.02
69171;BME280;56279;47.902;12.308;2023-03-14T03:10:38;93955.69;;;9.22;84.15
69171;BME280;56279;47.902;12.308;2023-03-14T03:12:41;93954.91;;;9.21;84.49
69171;BME280;56279;47.902;12.308;2023-03-14T03:14:43;93959.06;;;9.22;84.35
69171;BME280;56279;47.902;12.308;2023-03-14T03:16:44;93954.91;;;9.21;85.03
69171;BME280;56279;47.902;12.308;2023-03-14T03:18:47;93957.06;;;9.19;85.20
69171;BME280;56279;47.902;12.308;2023-03-14T03:20:48;93959.97;;;9.18;85.21
69171;BME280;56279;47.902;12.308;2023-03-14T03:22:50;93953.91;;;9.17;85.22
69171;BME280;56279;47.902;12.308;2023-03-14T03:24:51;93942.91;;;9.15;85.49
69171;BME280;56279;47.902;12.308;2023-03-14T03:26:53;93934.09;;;9.11;86.30
69171;BME280;56279;47.902;12.308;2023-03-14T03:28:55;93930.19;;;9.09;86.34
69171;BME280;56279;47.902;12.308;2023-03-14T03:30:57;93929.72;;;9.07;86.60
69171;BME280;56279;47.902;12.308;2023-03-14T03:32:59;93941.63;;;9.04;86.83
69171;BME280;56279;47.902;12.308;2023-03-14T03:35:03;93933.72;;;9.04;87.08
69171;BME280;56279;47.902;12.308;2023-03-14T03:37:04;93939.00;;;9.04;87.90
69171;BME280;56279;47.902;12.308;2023-03-14T03:39:10;93941.63;;;9.04;87.87
69171;BME280;56279;47.902;12.308;2023-03-14T03:41:11;93950.63;;;9.03;88.12
69171;BME280;56279;47.902;12.308;2023-03-14T03:43:14;93959.56;;;9.02;88.21
69171;BME280;56279;47.902;12.308;2023-03-14T03:45:19;93959.09;;;9.00;88.09
69171;BME280;56279;47.902;12.308;2023-03-14T03:47:27;93958.63;;;8.98;88.49
69171;BME280;56279;47.902;12.308;2023-03-14T03:49:31;93960.78;;;8.96;88.57
69171;BME280;56279;47.902;12.308;2023-03-14T03:51:33;93962.44;;;8.92;89.06
69171;BME280;56279;47.902;12.308;2023-03-14T03:53:34;93947.75;;;8.91;89.01
69171;BME280;56279;47.902;12.308;2023-03-14T03:55:47;93937.22;;;8.91;89.46
69171;BME280;56279;47.902;12.308;2023-03-14T03:57:51;93930.38;;;8.90;89.13
69171;BME280;56279;47.902;12.308;2023-03-14T03:59:53;93920.97;;;8.89;89.31
69171;BME280;56279;47.902;12.308;2023-03-14T04:01:54;93919.41;;;8.88;90.10
69171;BME280;56279;47.902;12.308;2023-03-14T04:03:56;93904.69;;;8.87;89.74
69171;BME280;56279;47.902;12.308;2023-03-14T04:06:08;93893.69;;;8.85;89.97
69171;BME280;56279;47.902;12.308;2023-03-14T04:08:12;93892.44;;;8.82;90.14
69171;BME280;56279;47.902;12.308;2023-03-14T04:10:13;93891.94;;;8.80;90.43
69171;BME280;56279;47.902;12.308;2023-03-14T04:12:21;93888.84;;;8.78;90.00
69171;BME280;56279;47.902;12.308;2023-03-14T04:14:40;93893.31;;;8.78;89.76
69171;BME280;56279;47.902;12.308;2023-03-14T04:16:55;93894.69;;;8.75;89.77
69171;BME280;56279;47.902;12.308;2023-03-14T04:18:57;93893.44;;;8.73;89.89
69171;BME280;56279;47.902;12.308;2023-03-14T04:20:59;93899.31;;;8.70;90.17
69171;BME280;56279;47.902;12.308;2023-03-14T04:23:11;93898.06;;;8.67;89.76
69171;BME280;56279;47.902;12.308;2023-03-14T04:25:12;93901.28;;;8.64;89.94
69171;BME280;56279;47.902;12.308;2023-03-14T04:27:19;93898.19;;;8.62;89.91
69171;BME280;56279;47.902;12.308;2023-03-14T04:29:22;93890.59;;;8.61;89.59
69171;BME280;56279;47.902;12.308;2023-03-14T04:31:23;93899.56;;;8.60;89.46
69171;BME280;56279;47.902;12.308;2023-03-14T04:33:25;93903.88;;;8.56;89.46
69171;BME280;56279;47.902;12.308;2023-03-14T04:35:33;93902.91;;;8.52;89.82
69171;BME280;56279;47.902;12.308;2023-03-14T04:37:39;93902.91;;;8.52;89.22
69171;BME280;56279;47.902;12.308;2023-03-14T04:39:44;93899.78;;;8.50;89.72
69171;BME280;56279;47.902;12.308;2023-03-14T04:41:51;93901.16;;;8.47;89.13
69171;BME280;56279;47.902;12.308;2023-03-14T04:43:53;93896.97;;;8.46;89.54
69171;BME280;56279;47.902;12.308;2023-03-14T04:45:56;93894.94;;;8.43;89.56
69171;BME280;56279;47.902;12.308;2023-03-14T04:47:58;93887.06;;;8.43;89.43
69171;BME280;56279;47.902;12.308;2023-03-14T04:50:00;93889.69;;;8.43;89.05
69171;BME280;56279;47.902;12.308;2023-03-14T04:52:02;93887.38;;;8.42;89.04
69171;BME280;56279;47.902;12.308;2023-03-14T04:54:06;93886.59;;;8.41;88.99
69171;BME280;56279;47.902;12.308;2023-03-14T04:56:08;93888.72;;;8.39;89.32
69171;BME280;56279;47.902;12.308;2023-03-14T04:58:26;93887.00;;;8.34;88.88
69171;BME280;56279;47.902;12.308;2023-03-14T05:00:30;93883.78;;;8.38;89.26
69171;BME280;56279;47.902;12.308;2023-03-14T05:02:42;93886.41;;;8.38;89.26
69171;BME280;56279;47.902;12.308;2023-03-14T05:05:11;93885.16;;;8.35;88.96
69171;BME280;56279;47.902;12.308;2023-03-14T05:07:20;93869.97;;;8.32;89.21
69171;BME280;56279;47.902;12.308;2023-03-14T05:09:40;93861.13;;;8.28;89.38
69171;BME280;56279;47.902;12.308;2023-03-14T05:12:05;93855.88;;;8.28;89.05
69171;BME280;56279;47.902;12.308;2023-03-14T05:14:06;93845.13;;;8.24;89.06
69171;BME280;56279;47.902;12.308;2023-03-14T05:16:18;93837.25;;;8.24;89.27
69171;BME280;56279;47.902;12.308;2023-03-14T05:18:40;93851.19;;;8.25;89.30
69171;BME280;56279;47.902;12.308;2023-03-14T05:20:59;93850.69;;;8.23;89.05
69171;BME280;56279;47.902;12.308;2023-03-14T05:23:19;93843.09;;;8.21;89.70
69171;BME280;56279;47.902;12.308;2023-03-14T05:25:51;93843.72;;;8.18;89.54
69171;BME280;56279;47.902;12.308;2023-03-14T05:28:19;93833.78;;;8.15;89.62
69171;BME280;56279;47.902;12.308;2023-03-14T05:30:33;93831.94;;;8.16;89.81
69171;BME280;56279;47.902;12.308;2023-03-14T05:32:40;93824.38;;;8.14;89.85
69171;BME280;56279;47.902;12.308;2023-03-14T05:35:11;93822.81;;;8.13;90.38
69171;BME280;56279;47.902;12.308;2023-03-14T05:37:32;93826.22;;;8.14;90.10
69171;BME280;56279;47.902;12.308;2023-03-14T05:39:52;93818.63;;;8.12;89.83
69171;BME280;56279;47.902;12.308;2023-03-14T05:42:12;93813.66;;;8.11;90.00
69171;BME280;56279;47.902;12.308;2023-03-14T05:44:34;93811.03;;;8.11;89.69
69171;BME280;56279;47.902;12.308;2023-03-14T05:46:54;93800.84;;;8.09;90.06
69171;BME280;56279;47.902;12.308;2023-03-14T05:49:05;93807.63;;;8.10;90.31
69171;BME280;56279;47.902;12.308;2023-03-14T05:51:26;93798.22;;;8.09;90.21
69171;BME280;56279;47.902;12.308;2023-03-14T05:53:46;93783.50;;;8.08;89.96
69171;BME280;56279;47.902;12.308;2023-03-14T05:56:08;93771.28;;;8.04;90.45
69171;BME280;56279;47.902;12.308;2023-03-14T05:58:22;93777.59;;;8.03;90.78
69171;BME280;56279;47.902;12.308;2023-03-14T06:00:55;93766.59;;;8.01;90.91
69171;BME280;56279;47.902;12.308;2023-03-14T06:03:20;93759.03;;;7.99;91.19
69171;BME280;56279;47.902;12.308;2023-03-14T06:05:23;93754.09;;;7.98;91.43
69171;BME280;56279;47.902;12.308;2023-03-14T06:07:30;93758.56;;;7.97;91.85
69171;BME280;56279;47.902;12.308;2023-03-14T06:09:32;93756.72;;;7.98;92.01
69171;BME280;56279;47.902;12.308;2023-03-14T06:11:35;93757.78;;;7.97;91.84
69171;BME280;56279;47.902;12.308;2023-03-14T06:13:38;93769.06;;;7.97;91.84
69171;BME280;56279;47.902;12.308;2023-03-14T06:15:39;93764.59;;;7.98;92.32
69171;BME280;56279;47.902;12.308;2023-03-14T06:17:41;93765.34;;;7.98;92.12
69171;BME280;56279;47.902;12.308;2023-03-14T06:19:45;93763.22;;;8.00;92.11
69171;BME280;56279;47.902;12.308;2023-03-14T06:21:48;93763.22;;;8.00;91.80
69171;BME280;56279;47.902;12.308;2023-03-14T06:23:49;93757.66;;;8.02;91.99
69171;BME280;56279;47.902;12.308;2023-03-14T06:25:51;93753.94;;;8.03;91.88
69171;BME280;56279;47.902;12.308;2023-03-14T06:27:53;93751.03;;;8.04;92.45
69171;BME280;56279;47.902;12.308;2023-03-14T06:29:55;93751.03;;;8.04;92.39
69171;BME280;56279;47.902;12.308;2023-03-14T06:31:58;93759.09;;;8.08;92.03
69171;BME280;56279;47.902;12.308;2023-03-14T06:34:00;93759.56;;;8.10;91.75
69171;BME280;56279;47.902;12.308;2023-03-14T06:36:06;93758.81;;;8.09;91.71
69171;BME280;56279;47.902;12.308;2023-03-14T06:38:10;93752.47;;;8.10;92.41
69171;BME280;56279;47.902;12.308;2023-03-14T06:40:14;93751.97;;;8.08;91.94
69171;BME280;56279;47.902;12.308;2023-03-14T06:42:26;93749.03;;;8.10;92.33
69171;BME280;56279;47.902;12.308;2023-03-14T06:44:29;93740.41;;;8.09;91.91
69171;BME280;56279;47.902;12.308;2023-03-14T06:46:30;93740.41;;;8.09;92.44
69171;BME280;56279;47.902;12.308;2023-03-14T06:48:34;93735.16;;;8.09;91.94
69171;BME280;56279;47.902;12.308;2023-03-14T06:50:36;93732.81;;;8.08;92.32
69171;BME280;56279;47.902;12.308;2023-03-14T06:52:39;93732.53;;;8.09;92.27
69171;BME280;56279;47.902;12.308;2023-03-14T06:54:48;93734.06;;;8.10;92.67
69171;BME280;56279;47.902;12.308;2023-03-14T06:56:50;93742.25;;;8.09;92.06
69171;BME280;56279;47.902;12.308;2023-03-14T06:58:51;93742.25;;;8.09;92.84
69171;BME280;56279;47.902;12.308;2023-03-14T07:00:55;93743.78;;;8.10;92.65
69171;BME280;56279;47.902;12.308;2023-03-14T07:03:01;93748.78;;;8.11;92.58
69171;BME280;56279;47.902;12.308;2023-03-14T07:05:07;93768.41;;;8.14;92.27
69171;BME280;56279;47.902;12.308;2023-03-14T07:07:09;93753.44;;;8.14;92.68
69171;BME280;56279;47.902;12.308;2023-03-14T07:09:11;93759.91;;;8.17;92.68
69171;BME280;56279;47.902;12.308;2023-03-14T07:11:17;93770.16;;;8.18;92.21
69171;BME280;56279;47.902;12.308;2023-03-14T07:13:18;93783.28;;;8.18;92.59
69171;BME280;56279;47.902;12.308;2023-03-14T07:15:29;93775.88;;;8.20;92.46
69171;BME280;56279;47.902;12.308;2023-03-14T07:17:36;93775.88;;;8.20;92.31
69171;BME280;56279;47.902;12.308;2023-03-14T07:19:41;93774.03;;;8.21;92.27
69171;BME280;56279;47.902;12.308;2023-03-14T07:21:44;93780.22;;;8.25;91.88
69171;BME280;56279;47.902;12.308;2023-03-14T07:23:47;93786.81;;;8.36;91.33
69171;BME280;56279;47.902;12.308;2023-03-14T07:25:49;93783.00;;;8.42;90.99
69171;BME280;56279;47.902;12.308;2023-03-14T07:27:53;93775.72;;;8.39;91.13
69171;BME280;56279;47.902;12.308;2023-03-14T07:29:55;93774.28;;;8.33;91.65
69171;BME280;56279;47.902;12.308;2023-03-14T07:31:56;93784.63;;;8.29;91.87
69171;BME280;56279;47.902;12.308;2023-03-14T07:33:57;93761.56;;;8.26;92.14
69171;BME280;56279;47.902;12.308;2023-03-14T07:36:04;93769.44;;;8.26;92.56
69171;BME280;56279;47.902;12.308;2023-03-14T07:38:06;93784.44;;;8.26;92.60
69171;BME280;56279;47.902;12.308;2023-03-14T07:40:13;93778.38;;;8.25;92.17
69171;BME280;56279;47.902;12.308;2023-03-14T07:42:16;93776.56;;;8.26;91.99
69171;BME280;56279;47.902;12.308;2023-03-14T07:44:18;93769.44;;;8.26;92.43
69171;BME280;56279;47.902;12.308;2023-03-14T07:46:20;93779.94;;;8.26;92.40
69171;BME280;56279;47.902;12.308;2023-03-14T07:48:22;93791.25;;;8.27;92.30
69171;BME280;56279;47.902;12.308;2023-03-14T07:50:27;93792.50;;;8.29;92.04
69171;BME280;56279;47.902;12.308;2023-03-14T07:52:29;93798.22;;;8.31;91.68
69171;BME280;56279;47.902;12.308;2023-03-14T07:54:30;93793.44;;;8.33;91.84
69171;BME280;56279;47.902;12.308;2023-03-14T07:56:31;93778.94;;;8.36;92.08
69171;BME280;56279;47.902;12.308;2023-03-14T07:58:33;93778.94;;;8.36;91.87
69171;BME280;56279;47.902;12.308;2023-03-14T08:00:34;93779.25;;;8.34;91.47
69171;BME280;56279;47.902;12.308;2023-03-14T08:02:36;93784.31;;;8.31;92.00
69171;BME280;56279;47.902;12.308;2023-03-14T08:04:39;93783.03;;;8.28;92.15
69171;BME280;56279;47.902;12.308;2023-03-14T08:06:41;93786.78;;;8.27;91.98
69171;BME280;56279;47.902;12.308;2023-03-14T08:08:43;93773.94;;;8.26;92.17
69171;BME280;56279;47.902;12.308;2023-03-14T08:10:44;93777.59;;;8.25;92.47
69171;BME280;56279;47.902;12.308;2023-03-14T08:12:47;93782.56;;;8.26;91.95
69171;BME280;56279;47.902;12.308;2023-03-14T08:14:49;93772.84;;;8.27;91.94
69171;BME280;56279;47.902;12.308;2023-03-14T08:16:51;93778.38;;;8.25;91.91
69171;BME280;56279;47.902;12.308;2023-03-14T08:18:52;93767.41;;;8.23;91.93
69171;BME280;56279;47.902;12.308;2023-03-14T08:20:53;93777.91;;;8.23;92.03
69171;BME280;56279;47.902;12.308;2023-03-14T08:22:57;93785.78;;;8.23;92.54
69171;BME280;56279;47.902;12.308;2023-03-14T08:24:59;93770.31;;;8.22;92.27
69171;BME280;56279;47.902;12.308;2023-03-14T08:27:01;93780.81;;;8.22;92.45
69171;BME280;56279;47.902;12.308;2023-03-14T08:29:02;93784.69;;;8.24;92.25
69171;BME280;56279;47.902;12.308;2023-03-14T08:31:05;93770.22;;;8.27;92.63
69171;BME280;56279;47.902;12.308;2023-03-14T08:33:06;93769.72;;;8.25;92.42
69171;BME280;56279;47.902;12.308;2023-03-14T08:35:09;93768.47;;;8.22;92.54
69171;BME280;56279;47.902;12.308;2023-03-14T08:37:11;93767.69;;;8.22;92.40
69171;BME280;56279;47.902;12.308;2023-03-14T08:39:13;93765.84;;;8.22;92.66
69171;BME280;56279;47.902;12.308;2023-03-14T08:41:14;93762.91;;;8.24;92.46
69171;BME280;56279;47.902;12.308;2023-03-14T08:43:16;93769.72;;;8.25;92.47
69171;BME280;56279;47.902;12.308;2023-03-14T08:45:17;93776.25;;;8.27;92.50
69171;BME280;56279;47.902;12.308;2023-03-14T08:47:19;93777.78;;;8.28;92.41
69171;BME280;56279;47.902;12.308;2023-03-14T08:49:20;93785.41;;;8.30;92.30
69171;BME280;56279;47.902;12.308;2023-03-14T08:51:21;93770.69;;;8.29;92.47
69171;BME280;56279;47.902;12.308;2023-03-14T08:53:23;93768.06;;;8.29;92.26
69171;BME280;56279;47.902;12.308;2023-03-14T08:55:24;93784.31;;;8.31;92.52
69171;BME280;56279;47.902;12.308;2023-03-14T08:57:26;93786.03;;;8.35;91.83
69171;BME280;56279;47.902;12.308;2023-03-14T08:59:28;93776.78;;;8.38;91.76
69171;BME280;56279;47.902;12.308;2023-03-14T09:01:30;93788.06;;;8.39;91.29
69171;BME280;56279;47.902;12.308;2023-03-14T09:03:32;93791.94;;;8.41;91.27
69171;BME280;56279;47.902;12.308;2023-03-14T09:05:33;93799.53;;;8.43;91.15
69171;BME280;56279;47.902;12.308;2023-03-14T09:07:36;93807.41;;;8.43;90.87
69171;BME280;56279;47.902;12.308;2023-03-14T09:09:37;93803.41;;;8.45;90.91
69171;BME280;56279;47.902;12.308;2023-03-14T09:11:40;93808.84;;;8.49;90.71
69171;BME280;56279;47.902;12.308;2023-03-14T09:13:41;93817.22;;;8.51;91.00
69171;BME280;56279;47.902;12.308;2023-03-14T09:15:43;93819.53;;;8.52;90.54
69171;BME280;56279;47.902;12.308;2023-03-14T09:17:45;93829.47;;;8.55;90.30
69171;BME280;56279;47.902;12.308;2023-03-14T09:19:47;93825.47;;;8.58;89.89
69171;BME280;56279;47.902;12.308;2023-03-14T09:21:48;93829.34;;;8.60;89.66
69171;BME280;56279;47.902;12.308;2023-03-14T09:23:50;93837.69;;;8.62;89.24
69171;BME280;56279;47.902;12.308;2023-03-14T09:25:58;93822.25;;;8.61;89.32
69171;BME280;56279;47.902;12.308;2023-03-14T09:28:00;93838.50;;;8.63;89.30
69171;BME280;56279;47.902;12.308;2023-03-14T09:30:01;93851.91;;;8.61;88.73
69171;BME280;56279;47.902;12.308;2023-03-14T09:32:03;93843.28;;;8.61;88.57
69171;BME280;56279;47.902;12.308;2023-03-14T09:34:04;93846.50;;;8.58;88.39
69171;BME280;56279;47.902;12.308;2023-03-14T09:36:06;93839.19;;;8.55;87.92
69171;BME280;56279;47.902;12.308;2023-03-14T09:38:08;93842.28;;;8.57;87.95
69171;BME280;56279;47.902;12.308;2023-03-14T09:40:17;93840.75;;;8.56;87.96
69171;BME280;56279;47.902;12.308;2023-03-14T09:42:23;93837.81;;;8.57;87.87
69171;BME280;56279;47.902;12.308;2023-03-14T09:44:31;93844.34;;;8.60;88.14
69171;BME280;56279;47.902;12.308;2023-03-14T09:46:35;93838.00;;;8.61;88.26
69171;BME280;56279;47.902;12.308;2023-03-14T09:48:39;93843.44;;;8.64;87.95
69171;BME280;56279;47.902;12.308;2023-03-14T09:50:44;93846.25;;;8.68;87.94
69171;BME280;56279;47.902;12.308;2023-03-14T09:52:48;93845.94;;;8.69;88.23
69171;BME280;56279;47.902;12.308;2023-03-14T09:54:54;93851.38;;;8.73;88.39
69171;BME280;56279;47.902;12.308;2023-03-14T09:57:25;93861.88;;;8.73;87.98
69171;BME280;56279;47.902;12.308;2023-03-14T09:59:28;93854.97;;;8.77;88.23
69171;BME280;56279;47.902;12.308;2023-03-14T10:01:31;93857.88;;;8.75;88.08
69171;BME280;56279;47.902;12.308;2023-03-14T10:03:34;93858.19;;;8.74;88.25
69171;BME280;56279;47.902;12.308;2023-03-14T10:05:36;93863.75;;;8.72;88.11
69171;BME280;56279;47.902;12.308;2023-03-14T10:07:37;93868.72;;;8.74;88.20
69171;BME280;56279;47.902;12.308;2023-03-14T10:09:39;93865.00;;;8.75;88.04
69171;BME280;56279;47.902;12.308;2023-03-14T10:11:41;93871.53;;;8.77;87.97
69171;BME280;56279;47.902;12.308;2023-03-14T10:14:01;93868.59;;;8.79;88.14
69171;BME280;56279;47.902;12.308;2023-03-14T10:16:05;93873.72;;;8.84;88.39
69171;BME280;56279;47.902;12.308;2023-03-14T10:18:12;93865.72;;;8.89;88.16
69171;BME280;56279;47.902;12.308;2023-03-14T10:20:44;93861.69;;;8.91;87.89
69171;BME280;56279;47.902;12.308;2023-03-14T10:22:49;93857.88;;;8.97;88.02
69171;BME280;56279;47.902;12.308;2023-03-14T10:24:57;93857.44;;;9.04;88.26
69171;BME280;56279;47.902;12.308;2023-03-14T10:27:03;93856.81;;;9.07;87.91
69171;BME280;56279;47.902;12.308;2023-03-14T10:29:11;93859.50;;;9.16;87.96
69171;BME280;56279;47.902;12.308;2023-03-14T10:31:14;93848.53;;;9.22;87.76
69171;BME280;56279;47.902;12.308;2023-03-14T10:33:22;93833.97;;;9.25;87.29
69171;BME280;56279;47.902;12.308;2023-03-14T10:35:24;93825.28;;;9.24;87.85
69171;BME280;56279;47.902;12.308;2023-03-14T10:37:27;93805.16;;;9.20;88.12
69171;BME280;56279;47.902;12.308;2023-03-14T10:39:49;93802.38;;;9.16;88.53
69171;BME280;56279;47.902;12.308;2023-03-14T10:42:02;93802.69;;;9.15;88.83
69171;BME280;56279;47.902;12.308;2023-03-14T10:44:05;93805.00;;;9.16;88.77
69171;BME280;56279;47.902;12.308;2023-03-14T10:46:19;93808.69;;;9.15;88.63
69171;BME280;56279;47.902;12.308;2023-03-14T10:52:48;93785.03;;;9.15;88.54
69171;BME280;56279;47.902;12.308;2023-03-14T10:55:00;93789.81;;;9.13;88.02
69171;BME280;56279;47.902;12.308;2023-03-14T10:59:57;93795.72;;;9.10;88.00
69171;BME280;56279;47.902;12.308;2023-03-14T11:07:33;93790.63;;;9.22;87.59
69171;BME280;56279;47.902;12.308;2023-03-14T11:09:50;93788.31;;;9.29;87.28
69171;BME280;56279;47.902;12.308;2023-03-14T11:11:58;93788.03;;;9.39;87.24
69171;BME280;56279;47.902;12.308;2023-03-14T11:14:16;93803.09;;;9.47;86.79
69171;BME280;56279;47.902;12.308;2023-03-14T11:16:32;93800.78;;;9.54;86.62
69171;BME280;56279;47.902;12.308;2023-03-14T11:23:25;93789.19;;;9.72;85.93
69171;BME280;56279;47.902;12.308;2023-03-14T11:33:01;93783.59;;;10.08;85.40
69171;BME280;56279;47.902;12.308;2023-03-14T11:37:32;93790.31;;;10.23;85.21
69171;BME280;56279;47.902;12.308;2023-03-14T11:39:39;93779.91;;;10.35;85.10
69171;BME280;56279;47.902;12.308;2023-03-14T11:41:47;93767.47;;;10.44;85.22
69171;BME280;56279;47.902;12.308;2023-03-14T11:43:57;93768.53;;;10.52;85.16
69171;BME280;56279;47.902;12.308;2023-03-14T11:46:38;93770.53;;;10.63;84.79